sensor_id;sensor_type;location;lat;lon;timestamp;temperature;humidity
54930;DHT22;40833;53.238;6.576;2023-07-30T00:01:45;16.40;99.90
54930;DHT22;40833;53.238;6.576;2023-07-30T00:04:10;16.40;99.90
54930;DHT22;40833;53.238;6.576;2023-07-30T00:06:36;16.40;99.90
54930;DHT22;40833;53.238;6.576;2023-07-30T00:09:01;16.30;99.90
54930;DHT22;40833;53.238;6.576;2023-07-30T00:11:27;16.30;99.90
54930;DHT22;40833;53.238;6.576;2023-07-30T00:13:53;16.30;99.90
54930;DHT22;40833;53.238;6.576;2023-07-30T00:16:18;16.30;99.90
54930;DHT22;40833;53.238;6.576;2023-07-30T00:18:44;16.20;99.90
54930;DHT22;40833;53.238;6.576;2023-07-30T00:21:10;16.20;99.90
54930;DHT22;40833;53.238;6.576;2023-07-30T00:23:36;16.20;99.90
54930;DHT22;40833;53.238;6.576;2023-07-30T00:26:02;16.20;99.90
54930;DHT22;40833;53.238;6.576;2023-07-30T00:28:27;16.20;99.90
54930;DHT22;40833;53.238;6.576;2023-07-30T00:30:53;16.20;99.90
54930;DHT22;40833;53.238;6.576;2023-07-30T00:33:19;16.10;99.90
54930;DHT22;40833;53.238;6.576;2023-07-30T00:35:44;16.20;99.90
54930;DHT22;40833;53.238;6.576;2023-07-30T00:38:10;16.10;99.90
54930;DHT22;40833;53.238;6.576;2023-07-30T00:40:45;16.10;99.90
54930;DHT22;40833;53.238;6.576;2023-07-30T00:43:10;16.10;99.90
54930;DHT22;40833;53.238;6.576;2023-07-30T00:45:38;16.10;99.90
54930;DHT22;40833;53.238;6.576;2023-07-30T00:48:05;16.10;99.90
54930;DHT22;40833;53.238;6.576;2023-07-30T00:50:31;16.10;99.90
54930;DHT22;40833;53.238;6.576;2023-07-30T00:52:58;16.10;99.90
54930;DHT22;40833;53.238;6.576;2023-07-30T00:55:24;16.00;99.90
54930;DHT22;40833;53.238;6.576;2023-07-30T00:57:50;16.10;99.90
54930;DHT22;40833;53.238;6.576;2023-07-30T01:00:17;16.00;99.90
54930;DHT22;40833;53.238;6.576;2023-07-30T01:02:43;16.00;99.90
54930;DHT22;40833;53.238;6.576;2023-07-30T01:05:09;15.90;99.90
54930;DHT22;40833;53.238;6.576;2023-07-30T01:07:35;15.90;99.90
54930;DHT22;40833;53.238;6.576;2023-07-30T01:10:01;15.90;99.90
54930;DHT22;40833;53.238;6.576;2023-07-30T01:12:30;15.90;99.90
54930;DHT22;40833;53.238;6.576;2023-07-30T01:14:57;15.90;99.90
54930;DHT22;40833;53.238;6.576;2023-07-30T01:17:24;15.90;99.90
54930;DHT22;40833;53.238;6.576;2023-07-30T01:19:49;15.90;99.90
54930;DHT22;40833;53.238;6.576;2023-07-30T01:22:20;16.00;99.90
54930;DHT22;40833;53.238;6.576;2023-07-30T01:24:47;15.90;99.90
54930;DHT22;40833;53.238;6.576;2023-07-30T01:27:19;16.00;99.90
54930;DHT22;40833;53.238;6.576;2023-07-30T01:29:54;16.00;99.90
54930;DHT22;40833;53.238;6.576;2023-07-30T01:32:25;16.00;99.90
54930;DHT22;40833;53.238;6.576;2023-07-30T01:34:54;16.00;99.90
54930;DHT22;40833;53.238;6.576;2023-07-30T01:37:22;16.10;99.90
54930;DHT22;40833;53.238;6.576;2023-07-30T01:39:48;16.00;99.90
54930;DHT22;40833;53.238;6.576;2023-07-30T01:42:15;16.00;99.90
54930;DHT22;40833;53.238;6.576;2023-07-30T01:44:41;16.00;99.90
54930;DHT22;40833;53.238;6.576;2023-07-30T01:47:06;16.00;99.90
54930;DHT22;40833;53.238;6.576;2023-07-30T01:49:32;16.00;99.90
54930;DHT22;40833;53.238;6.576;2023-07-30T01:51:58;16.00;99.90
54930;DHT22;40833;53.238;6.576;2023-07-30T01:54:24;16.00;99.90
54930;DHT22;40833;53.238;6.576;2023-07-30T01:56:50;16.00;99.90
54930;DHT22;40833;53.238;6.576;2023-07-30T01:59:15;16.00;99.90
54930;DHT22;40833;53.238;6.576;2023-07-30T02:01:41;16.00;99.90
54930;DHT22;40833;53.238;6.576;2023-07-30T02:04:07;16.10;99.90
54930;DHT22;40833;53.238;6.576;2023-07-30T02:06:33;16.10;99.90
54930;DHT22;40833;53.238;6.576;2023-07-30T02:08:58;16.10;99.90
54930;DHT22;40833;53.238;6.576;2023-07-30T02:11:24;16.10;99.90
54930;DHT22;40833;53.238;6.576;2023-07-30T02:13:50;16.10;99.90
54930;DHT22;40833;53.238;6.576;2023-07-30T02:16:15;16.10;99.90
54930;DHT22;40833;53.238;6.576;2023-07-30T02:18:41;16.10;99.90
54930;DHT22;40833;53.238;6.576;2023-07-30T02:21:07;16.20;99.90
54930;DHT22;40833;53.238;6.576;2023-07-30T02:23:32;16.20;99.90
54930;DHT22;40833;53.238;6.576;2023-07-30T02:25:58;16.20;99.90
54930;DHT22;40833;53.238;6.576;2023-07-30T02:28:24;16.20;99.90
54930;DHT22;40833;53.238;6.576;2023-07-30T02:30:49;16.20;99.90
54930;DHT22;40833;53.238;6.576;2023-07-30T02:33:15;16.20;99.90
54930;DHT22;40833;53.238;6.576;2023-07-30T02:35:43;16.20;99.90
54930;DHT22;40833;53.238;6.576;2023-07-30T02:38:08;16.20;99.90
54930;DHT22;40833;53.238;6.576;2023-07-30T02:40:34;16.20;99.90
54930;DHT22;40833;53.238;6.576;2023-07-30T02:43:00;16.20;99.90
54930;DHT22;40833;53.238;6.576;2023-07-30T02:45:25;16.20;99.90
54930;DHT22;40833;53.238;6.576;2023-07-30T02:47:51;16.20;99.90
54930;DHT22;40833;53.238;6.576;2023-07-30T02:50:17;16.10;99.90
54930;DHT22;40833;53.238;6.576;2023-07-30T02:52:42;16.10;99.90
54930;DHT22;40833;53.238;6.576;2023-07-30T02:55:08;16.10;99.90
54930;DHT22;40833;53.238;6.576;2023-07-30T02:57:34;16.00;99.90
54930;DHT22;40833;53.238;6.576;2023-07-30T02:59:59;16.00;99.90
54930;DHT22;40833;53.238;6.576;2023-07-30T03:02:25;16.00;99.90
54930;DHT22;40833;53.238;6.576;2023-07-30T03:04:51;15.90;99.90
54930;DHT22;40833;53.238;6.576;2023-07-30T03:07:16;15.90;99.90
54930;DHT22;40833;53.238;6.576;2023-07-30T03:09:44;15.90;99.90
54930;DHT22;40833;53.238;6.576;2023-07-30T03:12:09;15.90;99.90
54930;DHT22;40833;53.238;6.576;2023-07-30T03:14:35;15.90;99.90
54930;DHT22;40833;53.238;6.576;2023-07-30T03:17:01;15.80;99.90
54930;DHT22;40833;53.238;6.576;2023-07-30T03:19:27;15.80;99.90
54930;DHT22;40833;53.238;6.576;2023-07-30T03:21:53;15.80;99.90
54930;DHT22;40833;53.238;6.576;2023-07-30T03:24:18;15.80;99.90
54930;DHT22;40833;53.238;6.576;2023-07-30T03:26:44;15.70;99.90
54930;DHT22;40833;53.238;6.576;2023-07-30T03:29:09;15.70;99.90
54930;DHT22;40833;53.238;6.576;2023-07-30T03:31:35;15.60;99.90
54930;DHT22;40833;53.238;6.576;2023-07-30T03:34:01;15.60;99.90
54930;DHT22;40833;53.238;6.576;2023-07-30T03:36:26;15.60;99.90
54930;DHT22;40833;53.238;6.576;2023-07-30T03:38:52;15.60;99.90
54930;DHT22;40833;53.238;6.576;2023-07-30T03:41:18;15.60;99.90
54930;DHT22;40833;53.238;6.576;2023-07-30T03:43:43;15.50;99.90
54930;DHT22;40833;53.238;6.576;2023-07-30T03:46:09;15.50;99.90
54930;DHT22;40833;53.238;6.576;2023-07-30T03:48:34;15.50;99.90
54930;DHT22;40833;53.238;6.576;2023-07-30T03:51:00;15.50;99.90
54930;DHT22;40833;53.238;6.576;2023-07-30T03:53:26;15.50;99.90
54930;DHT22;40833;53.238;6.576;2023-07-30T03:55:51;15.40;99.90
54930;DHT22;40833;53.238;6.576;2023-07-30T03:58:17;15.40;99.90
54930;DHT22;40833;53.238;6.576;2023-07-30T04:00:43;15.40;99.90
54930;DHT22;40833;53.238;6.576;2023-07-30T04:03:08;15.40;99.90
54930;DHT22;40833;53.238;6.576;2023-07-30T04:05:34;15.40;99.90
54930;DHT22;40833;53.238;6.576;2023-07-30T04:07:59;15.40;99.90
54930;DHT22;40833;53.238;6.576;2023-07-30T04:10:25;15.40;99.90
54930;DHT22;40833;53.238;6.576;2023-07-30T04:12:51;15.30;99.90
54930;DHT22;40833;53.238;6.576;2023-07-30T04:15:17;15.40;99.90
54930;DHT22;40833;53.238;6.576;2023-07-30T04:17:42;15.40;99.90
54930;DHT22;40833;53.238;6.576;2023-07-30T04:20:09;15.50;99.90
54930;DHT22;40833;53.238;6.576;2023-07-30T04:22:37;15.40;99.90
54930;DHT22;40833;53.238;6.576;2023-07-30T04:25:04;15.50;99.90
54930;DHT22;40833;53.238;6.576;2023-07-30T04:27:30;15.50;99.90
54930;DHT22;40833;53.238;6.576;2023-07-30T04:29:55;15.50;99.90
54930;DHT22;40833;53.238;6.576;2023-07-30T04:32:21;15.50;99.90
54930;DHT22;40833;53.238;6.576;2023-07-30T04:34:47;15.50;99.90
54930;DHT22;40833;53.238;6.576;2023-07-30T04:37:12;15.50;99.90
54930;DHT22;40833;53.238;6.576;2023-07-30T04:39:38;15.50;99.90
54930;DHT22;40833;53.238;6.576;2023-07-30T04:42:04;15.50;99.90
54930;DHT22;40833;53.238;6.576;2023-07-30T04:44:30;15.50;99.90
54930;DHT22;40833;53.238;6.576;2023-07-30T04:46:55;15.50;99.90
54930;DHT22;40833;53.238;6.576;2023-07-30T04:49:21;15.60;99.90
54930;DHT22;40833;53.238;6.576;2023-07-30T04:51:47;15.60;99.90
54930;DHT22;40833;53.238;6.576;2023-07-30T04:54:12;15.70;99.90
54930;DHT22;40833;53.238;6.576;2023-07-30T04:56:38;15.70;99.90
54930;DHT22;40833;53.238;6.576;2023-07-30T04:59:04;15.80;99.90
54930;DHT22;40833;53.238;6.576;2023-07-30T05:01:29;15.90;99.90
54930;DHT22;40833;53.238;6.576;2023-07-30T05:03:56;15.90;99.90
54930;DHT22;40833;53.238;6.576;2023-07-30T05:06:22;16.00;99.90
54930;DHT22;40833;53.238;6.576;2023-07-30T05:08:48;16.00;99.90
54930;DHT22;40833;53.238;6.576;2023-07-30T05:11:14;16.00;99.90
54930;DHT22;40833;53.238;6.576;2023-07-30T05:13:39;16.00;99.90
54930;DHT22;40833;53.238;6.576;2023-07-30T05:16:06;16.00;99.90
54930;DHT22;40833;53.238;6.576;2023-07-30T05:18:31;16.10;99.90
54930;DHT22;40833;53.238;6.576;2023-07-30T05:20:57;16.10;99.90
54930;DHT22;40833;53.238;6.576;2023-07-30T05:23:22;16.20;99.90
54930;DHT22;40833;53.238;6.576;2023-07-30T05:25:48;16.20;99.90
54930;DHT22;40833;53.238;6.576;2023-07-30T05:28:14;16.20;99.90
54930;DHT22;40833;53.238;6.576;2023-07-30T05:30:39;16.20;99.90
54930;DHT22;40833;53.238;6.576;2023-07-30T05:33:05;16.20;99.90
54930;DHT22;40833;53.238;6.576;2023-07-30T05:35:31;16.20;99.90
54930;DHT22;40833;53.238;6.576;2023-07-30T05:37:56;16.30;99.90
54930;DHT22;40833;53.238;6.576;2023-07-30T05:40:22;16.40;99.90
54930;DHT22;40833;53.238;6.576;2023-07-30T05:42:48;16.50;99.90
54930;DHT22;40833;53.238;6.576;2023-07-30T05:45:14;16.60;99.90
54930;DHT22;40833;53.238;6.576;2023-07-30T05:47:39;16.70;99.90
54930;DHT22;40833;53.238;6.576;2023-07-30T05:50:06;16.70;99.90
54930;DHT22;40833;53.238;6.576;2023-07-30T05:52:32;16.80;99.90
54930;DHT22;40833;53.238;6.576;2023-07-30T05:54:58;16.90;99.90
54930;DHT22;40833;53.238;6.576;2023-07-30T05:57:24;16.90;99.90
54930;DHT22;40833;53.238;6.576;2023-07-30T05:59:50;17.00;99.90
54930;DHT22;40833;53.238;6.576;2023-07-30T06:02:16;17.10;99.90
54930;DHT22;40833;53.238;6.576;2023-07-30T06:04:41;17.10;99.90
54930;DHT22;40833;53.238;6.576;2023-07-30T06:07:07;17.20;99.90
54930;DHT22;40833;53.238;6.576;2023-07-30T06:09:32;17.20;99.90
54930;DHT22;40833;53.238;6.576;2023-07-30T06:11:58;17.20;99.90
54930;DHT22;40833;53.238;6.576;2023-07-30T06:14:25;17.30;99.90
54930;DHT22;40833;53.238;6.576;2023-07-30T06:16:52;17.30;99.90
54930;DHT22;40833;53.238;6.576;2023-07-30T06:19:18;17.40;99.90
54930;DHT22;40833;53.238;6.576;2023-07-30T06:21:44;17.40;99.90
54930;DHT22;40833;53.238;6.576;2023-07-30T06:24:09;17.40;99.90
54930;DHT22;40833;53.238;6.576;2023-07-30T06:26:35;17.40;99.90
54930;DHT22;40833;53.238;6.576;2023-07-30T06:29:01;17.40;99.90
54930;DHT22;40833;53.238;6.576;2023-07-30T06:31:27;17.50;99.90
54930;DHT22;40833;53.238;6.576;2023-07-30T06:33:52;17.60;99.90
54930;DHT22;40833;53.238;6.576;2023-07-30T06:36:18;17.60;99.90
54930;DHT22;40833;53.238;6.576;2023-07-30T06:38:44;17.70;99.90
54930;DHT22;40833;53.238;6.576;2023-07-30T06:41:09;17.70;99.90
54930;DHT22;40833;53.238;6.576;2023-07-30T06:43:35;17.80;99.90
54930;DHT22;40833;53.238;6.576;2023-07-30T06:46:00;17.80;99.90
54930;DHT22;40833;53.238;6.576;2023-07-30T06:48:26;17.90;99.90
54930;DHT22;40833;53.238;6.576;2023-07-30T06:50:52;17.90;99.90
54930;DHT22;40833;53.238;6.576;2023-07-30T06:53:17;17.90;99.90
54930;DHT22;40833;53.238;6.576;2023-07-30T06:55:43;18.00;99.90
54930;DHT22;40833;53.238;6.576;2023-07-30T06:58:10;17.90;99.90
54930;DHT22;40833;53.238;6.576;2023-07-30T07:00:36;17.90;99.90
54930;DHT22;40833;53.238;6.576;2023-07-30T07:03:01;17.70;99.90
54930;DHT22;40833;53.238;6.576;2023-07-30T07:05:27;17.70;99.90
54930;DHT22;40833;53.238;6.576;2023-07-30T07:07:53;17.70;99.90
54930;DHT22;40833;53.238;6.576;2023-07-30T07:10:18;17.70;99.90
54930;DHT22;40833;53.238;6.576;2023-07-30T07:12:44;17.70;99.90
54930;DHT22;40833;53.238;6.576;2023-07-30T07:15:10;17.70;99.90
54930;DHT22;40833;53.238;6.576;2023-07-30T07:17:35;17.70;99.90
54930;DHT22;40833;53.238;6.576;2023-07-30T07:20:01;17.60;99.90
54930;DHT22;40833;53.238;6.576;2023-07-30T07:22:29;17.60;99.90
54930;DHT22;40833;53.238;6.576;2023-07-30T07:24:55;19.10;99.90
54930;DHT22;40833;53.238;6.576;2023-07-30T07:27:20;17.60;99.90
54930;DHT22;40833;53.238;6.576;2023-07-30T07:29:48;17.70;99.90
54930;DHT22;40833;53.238;6.576;2023-07-30T07:32:14;17.70;99.90
54930;DHT22;40833;53.238;6.576;2023-07-30T07:34:40;17.80;99.90
54930;DHT22;40833;53.238;6.576;2023-07-30T07:37:05;17.80;99.90
54930;DHT22;40833;53.238;6.576;2023-07-30T07:39:32;17.90;99.90
54930;DHT22;40833;53.238;6.576;2023-07-30T07:41:59;18.10;99.90
54930;DHT22;40833;53.238;6.576;2023-07-30T07:44:28;18.20;99.90
54930;DHT22;40833;53.238;6.576;2023-07-30T07:46:54;18.50;99.90
54930;DHT22;40833;53.238;6.576;2023-07-30T07:49:20;18.70;99.90
54930;DHT22;40833;53.238;6.576;2023-07-30T07:51:46;19.00;99.90
54930;DHT22;40833;53.238;6.576;2023-07-30T07:54:11;19.10;99.90
54930;DHT22;40833;53.238;6.576;2023-07-30T07:56:37;19.40;99.90
54930;DHT22;40833;53.238;6.576;2023-07-30T07:59:02;19.50;99.90
54930;DHT22;40833;53.238;6.576;2023-07-30T08:01:28;19.50;99.90
54930;DHT22;40833;53.238;6.576;2023-07-30T08:03:55;19.50;99.90
54930;DHT22;40833;53.238;6.576;2023-07-30T08:06:20;19.50;99.90
54930;DHT22;40833;53.238;6.576;2023-07-30T08:08:46;19.50;99.90
54930;DHT22;40833;53.238;6.576;2023-07-30T08:11:12;19.50;99.90
54930;DHT22;40833;53.238;6.576;2023-07-30T08:13:37;19.60;99.90
54930;DHT22;40833;53.238;6.576;2023-07-30T08:16:04;19.50;99.90
54930;DHT22;40833;53.238;6.576;2023-07-30T08:18:30;19.40;99.90
54930;DHT22;40833;53.238;6.576;2023-07-30T08:20:55;19.20;99.90
54930;DHT22;40833;53.238;6.576;2023-07-30T08:23:21;19.20;99.90
54930;DHT22;40833;53.238;6.576;2023-07-30T08:25:47;19.30;99.90
54930;DHT22;40833;53.238;6.576;2023-07-30T08:28:15;19.30;99.90
54930;DHT22;40833;53.238;6.576;2023-07-30T08:30:41;19.40;99.90
54930;DHT22;40833;53.238;6.576;2023-07-30T08:33:06;19.40;99.90
54930;DHT22;40833;53.238;6.576;2023-07-30T08:35:32;19.50;99.90
54930;DHT22;40833;53.238;6.576;2023-07-30T08:37:58;19.60;99.90
54930;DHT22;40833;53.238;6.576;2023-07-30T08:40:24;19.60;99.90
54930;DHT22;40833;53.238;6.576;2023-07-30T08:42:53;19.60;99.90
54930;DHT22;40833;53.238;6.576;2023-07-30T08:45:20;19.60;99.90
54930;DHT22;40833;53.238;6.576;2023-07-30T08:47:46;19.60;99.90
54930;DHT22;40833;53.238;6.576;2023-07-30T08:50:12;19.50;99.90
54930;DHT22;40833;53.238;6.576;2023-07-30T08:52:38;19.40;99.90
54930;DHT22;40833;53.238;6.576;2023-07-30T08:55:05;19.50;99.90
54930;DHT22;40833;53.238;6.576;2023-07-30T08:57:32;19.50;99.90
54930;DHT22;40833;53.238;6.576;2023-07-30T09:00:09;19.60;99.90
54930;DHT22;40833;53.238;6.576;2023-07-30T09:02:50;19.60;99.90
54930;DHT22;40833;53.238;6.576;2023-07-30T09:05:16;19.80;99.90
54930;DHT22;40833;53.238;6.576;2023-07-30T09:07:42;19.90;99.90
54930;DHT22;40833;53.238;6.576;2023-07-30T09:10:08;20.00;99.90
54930;DHT22;40833;53.238;6.576;2023-07-30T09:12:35;20.10;99.90
54930;DHT22;40833;53.238;6.576;2023-07-30T09:15:05;20.10;99.90
54930;DHT22;40833;53.238;6.576;2023-07-30T09:17:31;20.10;99.90
54930;DHT22;40833;53.238;6.576;2023-07-30T09:19:59;20.10;99.90
54930;DHT22;40833;53.238;6.576;2023-07-30T09:22:28;20.00;99.90
54930;DHT22;40833;53.238;6.576;2023-07-30T09:24:57;19.90;99.90
54930;DHT22;40833;53.238;6.576;2023-07-30T09:27:25;19.70;99.90
54930;DHT22;40833;53.238;6.576;2023-07-30T09:29:56;19.50;99.90
54930;DHT22;40833;53.238;6.576;2023-07-30T09:32:29;19.50;99.90
54930;DHT22;40833;53.238;6.576;2023-07-30T09:34:55;19.40;99.90
54930;DHT22;40833;53.238;6.576;2023-07-30T09:37:21;19.30;99.90
54930;DHT22;40833;53.238;6.576;2023-07-30T09:39:48;19.30;99.90
54930;DHT22;40833;53.238;6.576;2023-07-30T09:42:14;19.30;99.90
54930;DHT22;40833;53.238;6.576;2023-07-30T09:44:39;19.30;99.90
54930;DHT22;40833;53.238;6.576;2023-07-30T09:47:09;19.30;99.90
54930;DHT22;40833;53.238;6.576;2023-07-30T09:49:36;19.40;99.90
54930;DHT22;40833;53.238;6.576;2023-07-30T09:52:03;19.50;99.90
54930;DHT22;40833;53.238;6.576;2023-07-30T09:54:29;19.60;99.90
54930;DHT22;40833;53.238;6.576;2023-07-30T09:56:56;19.70;99.90
54930;DHT22;40833;53.238;6.576;2023-07-30T09:59:23;19.80;99.90
54930;DHT22;40833;53.238;6.576;2023-07-30T10:01:50;19.90;99.90
54930;DHT22;40833;53.238;6.576;2023-07-30T10:04:19;20.10;99.90
54930;DHT22;40833;53.238;6.576;2023-07-30T10:06:51;20.10;99.90
54930;DHT22;40833;53.238;6.576;2023-07-30T10:09:19;20.10;99.90
54930;DHT22;40833;53.238;6.576;2023-07-30T10:11:46;20.00;99.90
54930;DHT22;40833;53.238;6.576;2023-07-30T10:14:14;19.90;99.90
54930;DHT22;40833;53.238;6.576;2023-07-30T10:16:52;19.80;99.90
54930;DHT22;40833;53.238;6.576;2023-07-30T10:19:23;19.80;99.90
54930;DHT22;40833;53.238;6.576;2023-07-30T10:21:49;19.70;99.90
54930;DHT22;40833;53.238;6.576;2023-07-30T10:24:15;19.70;99.90
54930;DHT22;40833;53.238;6.576;2023-07-30T10:26:40;19.80;99.90
54930;DHT22;40833;53.238;6.576;2023-07-30T10:29:11;20.20;99.90
54930;DHT22;40833;53.238;6.576;2023-07-30T10:31:56;20.40;99.90
54930;DHT22;40833;53.238;6.576;2023-07-30T10:34:26;20.60;99.90
54930;DHT22;40833;53.238;6.576;2023-07-30T10:36:55;20.60;99.90
54930;DHT22;40833;53.238;6.576;2023-07-30T10:39:26;20.50;99.90
54930;DHT22;40833;53.238;6.576;2023-07-30T10:41:55;20.30;99.90
54930;DHT22;40833;53.238;6.576;2023-07-30T10:44:34;19.90;99.90
54930;DHT22;40833;53.238;6.576;2023-07-30T10:47:01;19.70;99.90
54930;DHT22;40833;53.238;6.576;2023-07-30T10:49:27;19.70;99.90
54930;DHT22;40833;53.238;6.576;2023-07-30T10:51:56;19.80;99.90
54930;DHT22;40833;53.238;6.576;2023-07-30T10:54:23;20.10;99.90
54930;DHT22;40833;53.238;6.576;2023-07-30T10:56:48;20.30;99.90
54930;DHT22;40833;53.238;6.576;2023-07-30T10:59:15;20.30;99.90
54930;DHT22;40833;53.238;6.576;2023-07-30T11:01:43;20.30;99.90
54930;DHT22;40833;53.238;6.576;2023-07-30T11:06:44;20.70;99.90
54930;DHT22;40833;53.238;6.576;2023-07-30T11:09:21;20.90;99.90
54930;DHT22;40833;53.238;6.576;2023-07-30T11:11:48;21.10;99.90
54930;DHT22;40833;53.238;6.576;2023-07-30T11:14:18;21.20;99.90
54930;DHT22;40833;53.238;6.576;2023-07-30T11:16:53;21.30;99.90
54930;DHT22;40833;53.238;6.576;2023-07-30T11:19:20;21.20;99.90
54930;DHT22;40833;53.238;6.576;2023-07-30T11:24:12;21.60;99.90
54930;DHT22;40833;53.238;6.576;2023-07-30T11:26:37;21.70;99.90
54930;DHT22;40833;53.238;6.576;2023-07-30T11:29:16;21.70;99.90
54930;DHT22;40833;53.238;6.576;2023-07-30T11:31:46;21.80;99.90
54930;DHT22;40833;53.238;6.576;2023-07-30T11:34:13;21.70;99.90
54930;DHT22;40833;53.238;6.576;2023-07-30T11:36:41;21.70;99.90
54930;DHT22;40833;53.238;6.576;2023-07-30T11:39:07;21.80;99.90
54930;DHT22;40833;53.238;6.576;2023-07-30T11:41:33;21.90;99.90
54930;DHT22;40833;53.238;6.576;2023-07-30T11:43:59;22.20;99.90
54930;DHT22;40833;53.238;6.576;2023-07-30T11:46:25;22.40;99.90
54930;DHT22;40833;53.238;6.576;2023-07-30T11:48:53;22.40;99.90
54930;DHT22;40833;53.238;6.576;2023-07-30T11:51:27;22.50;99.90
54930;DHT22;40833;53.238;6.576;2023-07-30T11:53:58;22.70;99.90
54930;DHT22;40833;53.238;6.576;2023-07-30T11:56:31;22.90;99.90
54930;DHT22;40833;53.238;6.576;2023-07-30T11:59:04;23.10;99.90
54930;DHT22;40833;53.238;6.576;2023-07-30T12:01:31;22.90;99.90
54930;DHT22;40833;53.238;6.576;2023-07-30T12:03:58;22.70;99.90
54930;DHT22;40833;53.238;6.576;2023-07-30T12:06:37;22.70;99.90
54930;DHT22;40833;53.238;6.576;2023-07-30T12:09:19;22.70;99.90
54930;DHT22;40833;53.238;6.576;2023-07-30T12:12:00;22.50;99.90
54930;DHT22;40833;53.238;6.576;2023-07-30T12:17:14;22.30;99.90
54930;DHT22;40833;53.238;6.576;2023-07-30T12:19:40;22.00;99.90
54930;DHT22;40833;53.238;6.576;2023-07-30T12:22:06;21.90;99.90
54930;DHT22;40833;53.238;6.576;2023-07-30T12:24:32;21.80;99.90
54930;DHT22;40833;53.238;6.576;2023-07-30T12:26:57;21.70;99.90
54930;DHT22;40833;53.238;6.576;2023-07-30T12:29:24;21.70;99.90
54930;DHT22;40833;53.238;6.576;2023-07-30T12:31:50;21.70;99.90
54930;DHT22;40833;53.238;6.576;2023-07-30T12:34:19;21.80;99.90
54930;DHT22;40833;53.238;6.576;2023-07-30T12:36:45;21.90;99.90
54930;DHT22;40833;53.238;6.576;2023-07-30T12:39:11;22.00;99.90
54930;DHT22;40833;53.238;6.576;2023-07-30T12:41:37;21.90;99.90
54930;DHT22;40833;53.238;6.576;2023-07-30T12:44:03;21.80;99.90
54930;DHT22;40833;53.238;6.576;2023-07-30T12:46:30;21.80;99.90
54930;DHT22;40833;53.238;6.576;2023-07-30T12:48:57;21.80;99.90
54930;DHT22;40833;53.238;6.576;2023-07-30T12:51:23;22.00;99.90
54930;DHT22;40833;53.238;6.576;2023-07-30T12:53:49;22.20;99.90
54930;DHT22;40833;53.238;6.576;2023-07-30T12:56:15;22.40;99.90
54930;DHT22;40833;53.238;6.576;2023-07-30T12:58:41;22.70;99.90
54930;DHT22;40833;53.238;6.576;2023-07-30T13:01:07;22.70;99.90
54930;DHT22;40833;53.238;6.576;2023-07-30T13:03:32;22.60;99.90
54930;DHT22;40833;53.238;6.576;2023-07-30T13:05:58;22.40;99.90
54930;DHT22;40833;53.238;6.576;2023-07-30T13:08:24;22.20;99.90
54930;DHT22;40833;53.238;6.576;2023-07-30T13:10:49;22.30;99.90
54930;DHT22;40833;53.238;6.576;2023-07-30T13:13:16;22.50;99.90
54930;DHT22;40833;53.238;6.576;2023-07-30T13:15:41;22.80;99.90
54930;DHT22;40833;53.238;6.576;2023-07-30T13:18:07;23.10;99.90
54930;DHT22;40833;53.238;6.576;2023-07-30T13:20:33;23.20;99.90
54930;DHT22;40833;53.238;6.576;2023-07-30T13:22:58;22.90;99.90
54930;DHT22;40833;53.238;6.576;2023-07-30T13:25:24;22.70;99.90
54930;DHT22;40833;53.238;6.576;2023-07-30T13:27:50;22.50;99.90
54930;DHT22;40833;53.238;6.576;2023-07-30T13:30:16;22.20;99.90
54930;DHT22;40833;53.238;6.576;2023-07-30T13:32:41;22.30;99.90
54930;DHT22;40833;53.238;6.576;2023-07-30T13:35:07;22.50;99.90
54930;DHT22;40833;53.238;6.576;2023-07-30T13:37:33;22.80;99.90
54930;DHT22;40833;53.238;6.576;2023-07-30T13:39:59;22.90;99.90
54930;DHT22;40833;53.238;6.576;2023-07-30T13:42:24;22.80;99.90
54930;DHT22;40833;53.238;6.576;2023-07-30T13:44:51;22.60;99.90
54930;DHT22;40833;53.238;6.576;2023-07-30T13:47:16;22.50;99.90
54930;DHT22;40833;53.238;6.576;2023-07-30T13:49:42;22.40;99.90
54930;DHT22;40833;53.238;6.576;2023-07-30T13:52:08;22.30;99.90
54930;DHT22;40833;53.238;6.576;2023-07-30T13:54:33;22.40;99.90
54930;DHT22;40833;53.238;6.576;2023-07-30T13:57:01;22.70;99.90
54930;DHT22;40833;53.238;6.576;2023-07-30T13:59:27;23.00;99.90
54930;DHT22;40833;53.238;6.576;2023-07-30T14:01:53;23.20;99.90
54930;DHT22;40833;53.238;6.576;2023-07-30T14:04:18;23.60;99.90
54930;DHT22;40833;53.238;6.576;2023-07-30T14:06:44;24.00;99.90
54930;DHT22;40833;53.238;6.576;2023-07-30T14:09:10;24.30;99.90
54930;DHT22;40833;53.238;6.576;2023-07-30T14:11:36;24.40;99.90
54930;DHT22;40833;53.238;6.576;2023-07-30T14:14:03;24.60;99.90
54930;DHT22;40833;53.238;6.576;2023-07-30T14:16:29;24.70;99.90
54930;DHT22;40833;53.238;6.576;2023-07-30T14:18:54;24.40;99.50
54930;DHT22;40833;53.238;6.576;2023-07-30T14:21:20;24.20;99.70
54930;DHT22;40833;53.238;6.576;2023-07-30T14:23:46;24.10;99.90
54930;DHT22;40833;53.238;6.576;2023-07-30T14:26:11;24.20;99.90
54930;DHT22;40833;53.238;6.576;2023-07-30T14:28:37;24.20;99.90
54930;DHT22;40833;53.238;6.576;2023-07-30T14:31:03;24.20;99.90
54930;DHT22;40833;53.238;6.576;2023-07-30T14:33:28;24.10;99.90
54930;DHT22;40833;53.238;6.576;2023-07-30T14:35:54;24.00;99.90
54930;DHT22;40833;53.238;6.576;2023-07-30T14:38:20;24.20;99.90
54930;DHT22;40833;53.238;6.576;2023-07-30T14:40:46;24.30;99.90
54930;DHT22;40833;53.238;6.576;2023-07-30T14:43:11;24.40;99.90
54930;DHT22;40833;53.238;6.576;2023-07-30T14:45:37;24.70;99.90
54930;DHT22;40833;53.238;6.576;2023-07-30T14:48:03;24.80;99.90
54930;DHT22;40833;53.238;6.576;2023-07-30T14:50:29;24.70;99.90
54930;DHT22;40833;53.238;6.576;2023-07-30T14:52:54;24.40;99.90
54930;DHT22;40833;53.238;6.576;2023-07-30T14:55:20;24.10;99.90
54930;DHT22;40833;53.238;6.576;2023-07-30T14:57:46;23.80;99.90
54930;DHT22;40833;53.238;6.576;2023-07-30T15:00:12;23.40;99.90
54930;DHT22;40833;53.238;6.576;2023-07-30T15:02:40;23.10;99.90
54930;DHT22;40833;53.238;6.576;2023-07-30T15:05:06;22.80;99.90
54930;DHT22;40833;53.238;6.576;2023-07-30T15:07:32;22.30;99.90
54930;DHT22;40833;53.238;6.576;2023-07-30T15:09:57;22.00;99.90
54930;DHT22;40833;53.238;6.576;2023-07-30T15:12:23;21.60;99.90
54930;DHT22;40833;53.238;6.576;2023-07-30T15:14:49;21.20;99.90
54930;DHT22;40833;53.238;6.576;2023-07-30T15:17:14;20.60;99.90
54930;DHT22;40833;53.238;6.576;2023-07-30T15:19:40;20.20;99.90
54930;DHT22;40833;53.238;6.576;2023-07-30T15:22:06;20.00;99.90
54930;DHT22;40833;53.238;6.576;2023-07-30T15:24:32;20.00;99.90
54930;DHT22;40833;53.238;6.576;2023-07-30T15:26:58;20.30;99.90
54930;DHT22;40833;53.238;6.576;2023-07-30T15:29:23;20.50;99.90
54930;DHT22;40833;53.238;6.576;2023-07-30T15:31:50;20.90;99.90
54930;DHT22;40833;53.238;6.576;2023-07-30T15:34:25;21.70;99.90